sensor_id;sensor_type;location;lat;lon;timestamp;P1;durP1;ratioP1;P2;durP2;ratioP2
40170;SDS011;37650;52.790;18.268;2023-04-03T00:02:45;8.90;;;2.30;;
40170;SDS011;37650;52.790;18.268;2023-04-03T00:06:06;7.50;;;2.10;;
40170;SDS011;37650;52.790;18.268;2023-04-03T00:09:29;11.50;;;2.40;;
40170;SDS011;37650;52.790;18.268;2023-04-03T00:12:50;7.30;;;1.90;;
40170;SDS011;37650;52.790;18.268;2023-04-03T00:16:11;5.00;;;1.80;;
40170;SDS011;37650;52.790;18.268;2023-04-03T00:19:33;4.80;;;1.50;;
40170;SDS011;37650;52.790;18.268;2023-04-03T00:22:54;10.30;;;2.10;;
40170;SDS011;37650;52.790;18.268;2023-04-03T00:26:15;6.90;;;1.80;;
40170;SDS011;37650;52.790;18.268;2023-04-03T00:29:37;8.30;;;2.20;;
40170;SDS011;37650;52.790;18.268;2023-04-03T00:32:58;7.50;;;2.10;;
40170;SDS011;37650;52.790;18.268;2023-04-03T00:36:21;7.20;;;2.20;;
40170;SDS011;37650;52.790;18.268;2023-04-03T00:39:43;5.10;;;1.60;;
40170;SDS011;37650;52.790;18.268;2023-04-03T00:43:37;6.20;;;1.70;;
40170;SDS011;37650;52.790;18.268;2023-04-03T00:46:51;6.10;;;1.60;;
40170;SDS011;37650;52.790;18.268;2023-04-03T00:50:12;6.30;;;1.80;;
40170;SDS011;37650;52.790;18.268;2023-04-03T00:53:37;5.80;;;2.20;;
40170;SDS011;37650;52.790;18.268;2023-04-03T00:57:01;7.50;;;2.80;;
40170;SDS011;37650;52.790;18.268;2023-04-03T01:00:24;10.40;;;2.60;;
40170;SDS011;37650;52.790;18.268;2023-04-03T01:03:45;9.80;;;1.90;;
40170;SDS011;37650;52.790;18.268;2023-04-03T01:07:11;6.40;;;1.60;;
40170;SDS011;37650;52.790;18.268;2023-04-03T01:10:38;7.50;;;2.00;;
40170;SDS011;37650;52.790;18.268;2023-04-03T01:14:00;4.40;;;1.50;;
40170;SDS011;37650;52.790;18.268;2023-04-03T01:17:30;7.60;;;2.40;;
40170;SDS011;37650;52.790;18.268;2023-04-03T01:24:52;5.00;;;1.50;;
40170;SDS011;37650;52.790;18.268;2023-04-03T01:28:19;7.90;;;1.80;;
40170;SDS011;37650;52.790;18.268;2023-04-03T01:31:52;8.40;;;1.70;;
40170;SDS011;37650;52.790;18.268;2023-04-03T01:35:16;9.70;;;2.60;;
40170;SDS011;37650;52.790;18.268;2023-04-03T01:38:37;6.10;;;1.80;;
40170;SDS011;37650;52.790;18.268;2023-04-03T01:41:58;11.70;;;2.20;;
40170;SDS011;37650;52.790;18.268;2023-04-03T01:45:32;7.00;;;1.70;;
40170;SDS011;37650;52.790;18.268;2023-04-03T01:48:54;7.60;;;2.20;;
40170;SDS011;37650;52.790;18.268;2023-04-03T01:52:15;7.30;;;2.10;;
40170;SDS011;37650;52.790;18.268;2023-04-03T01:55:36;5.60;;;1.80;;
40170;SDS011;37650;52.790;18.268;2023-04-03T01:58:57;4.90;;;1.80;;
40170;SDS011;37650;52.790;18.268;2023-04-03T02:02:19;7.80;;;1.80;;
40170;SDS011;37650;52.790;18.268;2023-04-03T02:05:40;6.40;;;2.70;;
40170;SDS011;37650;52.790;18.268;2023-04-03T02:09:03;7.30;;;2.20;;
40170;SDS011;37650;52.790;18.268;2023-04-03T02:12:24;6.90;;;1.70;;
40170;SDS011;37650;52.790;18.268;2023-04-03T02:19:09;6.10;;;2.30;;
40170;SDS011;37650;52.790;18.268;2023-04-03T02:22:30;7.90;;;2.20;;
40170;SDS011;37650;52.790;18.268;2023-04-03T02:25:52;10.70;;;1.90;;
40170;SDS011;37650;52.790;18.268;2023-04-03T02:29:14;5.60;;;1.40;;
40170;SDS011;37650;52.790;18.268;2023-04-03T02:32:35;9.10;;;1.80;;
40170;SDS011;37650;52.790;18.268;2023-04-03T02:35:57;9.40;;;2.60;;
40170;SDS011;37650;52.790;18.268;2023-04-03T02:39:19;5.30;;;2.80;;
40170;SDS011;37650;52.790;18.268;2023-04-03T02:42:41;8.30;;;3.50;;
40170;SDS011;37650;52.790;18.268;2023-04-03T02:46:02;11.50;;;3.20;;
40170;SDS011;37650;52.790;18.268;2023-04-03T02:49:25;7.40;;;3.10;;
40170;SDS011;37650;52.790;18.268;2023-04-03T02:52:46;7.30;;;2.20;;
40170;SDS011;37650;52.790;18.268;2023-04-03T02:56:08;9.20;;;2.20;;
40170;SDS011;37650;52.790;18.268;2023-04-03T02:59:29;9.40;;;2.80;;
40170;SDS011;37650;52.790;18.268;2023-04-03T03:02:51;11.90;;;2.60;;
40170;SDS011;37650;52.790;18.268;2023-04-03T03:06:13;10.80;;;2.50;;
40170;SDS011;37650;52.790;18.268;2023-04-03T03:09:37;7.80;;;2.40;;
40170;SDS011;37650;52.790;18.268;2023-04-03T03:12:59;7.10;;;2.60;;
40170;SDS011;37650;52.790;18.268;2023-04-03T03:16:21;7.60;;;2.30;;
40170;SDS011;37650;52.790;18.268;2023-04-03T03:19:42;6.60;;;2.40;;
40170;SDS011;37650;52.790;18.268;2023-04-03T03:23:04;5.60;;;1.90;;
40170;SDS011;37650;52.790;18.268;2023-04-03T03:26:26;5.50;;;2.00;;
40170;SDS011;37650;52.790;18.268;2023-04-03T03:29:47;7.60;;;3.00;;
40170;SDS011;37650;52.790;18.268;2023-04-03T03:33:09;13.10;;;3.80;;
40170;SDS011;37650;52.790;18.268;2023-04-03T03:36:30;7.40;;;3.30;;
40170;SDS011;37650;52.790;18.268;2023-04-03T03:39:52;8.00;;;3.80;;
40170;SDS011;37650;52.790;18.268;2023-04-03T03:43:13;11.60;;;3.40;;
40170;SDS011;37650;52.790;18.268;2023-04-03T03:46:35;7.40;;;3.60;;
40170;SDS011;37650;52.790;18.268;2023-04-03T03:49:56;7.50;;;3.50;;
40170;SDS011;37650;52.790;18.268;2023-04-03T03:53:17;19.30;;;9.10;;
40170;SDS011;37650;52.790;18.268;2023-04-03T03:56:39;27.90;;;16.20;;
40170;SDS011;37650;52.790;18.268;2023-04-03T04:00:00;28.70;;;21.10;;
40170;SDS011;37650;52.790;18.268;2023-04-03T04:03:22;31.40;;;14.90;;
40170;SDS011;37650;52.790;18.268;2023-04-03T04:06:43;11.40;;;4.70;;
40170;SDS011;37650;52.790;18.268;2023-04-03T04:10:06;8.60;;;3.90;;
40170;SDS011;37650;52.790;18.268;2023-04-03T04:13:28;8.40;;;3.60;;
40170;SDS011;37650;52.790;18.268;2023-04-03T04:16:50;10.90;;;3.00;;
40170;SDS011;37650;52.790;18.268;2023-04-03T04:20:15;6.90;;;2.50;;
40170;SDS011;37650;52.790;18.268;2023-04-03T04:23:36;9.50;;;3.20;;
40170;SDS011;37650;52.790;18.268;2023-04-03T04:26:58;8.80;;;3.50;;
40170;SDS011;37650;52.790;18.268;2023-04-03T04:30:20;7.40;;;3.00;;
40170;SDS011;37650;52.790;18.268;2023-04-03T04:33:42;7.00;;;2.50;;
40170;SDS011;37650;52.790;18.268;2023-04-03T04:37:05;6.40;;;3.00;;
40170;SDS011;37650;52.790;18.268;2023-04-03T04:40:26;6.60;;;2.70;;
40170;SDS011;37650;52.790;18.268;2023-04-03T04:43:48;7.10;;;2.50;;
40170;SDS011;37650;52.790;18.268;2023-04-03T04:47:10;6.50;;;2.30;;
40170;SDS011;37650;52.790;18.268;2023-04-03T04:50:31;8.60;;;3.10;;
40170;SDS011;37650;52.790;18.268;2023-04-03T04:53:53;12.90;;;8.40;;
40170;SDS011;37650;52.790;18.268;2023-04-03T04:57:14;10.40;;;3.70;;
40170;SDS011;37650;52.790;18.268;2023-04-03T05:00:37;11.30;;;3.80;;
40170;SDS011;37650;52.790;18.268;2023-04-03T05:03:58;11.10;;;4.20;;
40170;SDS011;37650;52.790;18.268;2023-04-03T05:07:19;7.20;;;3.20;;
40170;SDS011;37650;52.790;18.268;2023-04-03T05:10:41;6.90;;;3.30;;
40170;SDS011;37650;52.790;18.268;2023-04-03T05:17:27;6.40;;;2.50;;
40170;SDS011;37650;52.790;18.268;2023-04-03T05:20:50;16.00;;;5.10;;
40170;SDS011;37650;52.790;18.268;2023-04-03T05:24:12;8.30;;;3.60;;
40170;SDS011;37650;52.790;18.268;2023-04-03T05:27:35;7.70;;;2.90;;
40170;SDS011;37650;52.790;18.268;2023-04-03T05:30:57;8.40;;;3.20;;
40170;SDS011;37650;52.790;18.268;2023-04-03T05:34:21;6.20;;;3.10;;
40170;SDS011;37650;52.790;18.268;2023-04-03T05:37:43;11.60;;;3.70;;
40170;SDS011;37650;52.790;18.268;2023-04-03T05:41:05;8.70;;;4.20;;
40170;SDS011;37650;52.790;18.268;2023-04-03T05:44:27;8.00;;;4.70;;
40170;SDS011;37650;52.790;18.268;2023-04-03T05:47:49;9.80;;;3.40;;
40170;SDS011;37650;52.790;18.268;2023-04-03T05:51:15;7.30;;;3.20;;
40170;SDS011;37650;52.790;18.268;2023-04-03T05:54:38;7.70;;;3.00;;
40170;SDS011;37650;52.790;18.268;2023-04-03T05:58:07;9.40;;;3.50;;
40170;SDS011;37650;52.790;18.268;2023-04-03T06:01:29;7.10;;;3.30;;
40170;SDS011;37650;52.790;18.268;2023-04-03T06:04:51;6.00;;;2.30;;
40170;SDS011;37650;52.790;18.268;2023-04-03T06:08:13;9.40;;;3.30;;
40170;SDS011;37650;52.790;18.268;2023-04-03T06:11:35;7.40;;;3.20;;
40170;SDS011;37650;52.790;18.268;2023-04-03T06:14:56;7.10;;;3.20;;
40170;SDS011;37650;52.790;18.268;2023-04-03T06:18:18;5.60;;;2.50;;
40170;SDS011;37650;52.790;18.268;2023-04-03T06:21:39;6.40;;;2.80;;
40170;SDS011;37650;52.790;18.268;2023-04-03T06:25:01;5.80;;;2.20;;
40170;SDS011;37650;52.790;18.268;2023-04-03T06:28:22;5.30;;;2.30;;
40170;SDS011;37650;52.790;18.268;2023-04-03T06:31:44;5.80;;;2.20;;
40170;SDS011;37650;52.790;18.268;2023-04-03T06:35:06;5.00;;;2.20;;
40170;SDS011;37650;52.790;18.268;2023-04-03T06:38:27;8.00;;;2.70;;
40170;SDS011;37650;52.790;18.268;2023-04-03T06:41:48;4.40;;;1.60;;
40170;SDS011;37650;52.790;18.268;2023-04-03T06:45:11;6.00;;;1.80;;
40170;SDS011;37650;52.790;18.268;2023-04-03T06:48:33;4.10;;;1.80;;
40170;SDS011;37650;52.790;18.268;2023-04-03T06:51:54;3.60;;;1.90;;
40170;SDS011;37650;52.790;18.268;2023-04-03T06:55:16;10.90;;;2.90;;
40170;SDS011;37650;52.790;18.268;2023-04-03T06:58:38;5.20;;;1.80;;
40170;SDS011;37650;52.790;18.268;2023-04-03T07:02:01;5.70;;;2.30;;
40170;SDS011;37650;52.790;18.268;2023-04-03T07:05:24;6.20;;;2.30;;
40170;SDS011;37650;52.790;18.268;2023-04-03T07:08:47;7.60;;;2.80;;
40170;SDS011;37650;52.790;18.268;2023-04-03T07:12:09;7.00;;;3.80;;
40170;SDS011;37650;52.790;18.268;2023-04-03T07:15:31;5.20;;;2.70;;
40170;SDS011;37650;52.790;18.268;2023-04-03T07:18:53;15.80;;;12.20;;
40170;SDS011;37650;52.790;18.268;2023-04-03T07:22:14;6.90;;;3.60;;
40170;SDS011;37650;52.790;18.268;2023-04-03T07:25:36;7.80;;;3.90;;
40170;SDS011;37650;52.790;18.268;2023-04-03T07:28:58;9.20;;;4.30;;
40170;SDS011;37650;52.790;18.268;2023-04-03T07:32:20;5.80;;;2.00;;
40170;SDS011;37650;52.790;18.268;2023-04-03T07:35:41;5.30;;;2.30;;
40170;SDS011;37650;52.790;18.268;2023-04-03T07:39:03;6.70;;;3.10;;
40170;SDS011;37650;52.790;18.268;2023-04-03T07:42:24;8.40;;;4.30;;
40170;SDS011;37650;52.790;18.268;2023-04-03T07:45:48;8.90;;;4.10;;
40170;SDS011;37650;52.790;18.268;2023-04-03T07:49:14;5.20;;;3.10;;
40170;SDS011;37650;52.790;18.268;2023-04-03T07:52:35;5.10;;;2.10;;
40170;SDS011;37650;52.790;18.268;2023-04-03T07:55:57;6.40;;;4.00;;
40170;SDS011;37650;52.790;18.268;2023-04-03T07:59:19;7.70;;;4.40;;
40170;SDS011;37650;52.790;18.268;2023-04-03T08:02:41;6.20;;;3.00;;
40170;SDS011;37650;52.790;18.268;2023-04-03T08:06:03;9.00;;;5.70;;
40170;SDS011;37650;52.790;18.268;2023-04-03T08:09:25;6.80;;;3.00;;
40170;SDS011;37650;52.790;18.268;2023-04-03T08:12:47;8.20;;;4.10;;
40170;SDS011;37650;52.790;18.268;2023-04-03T08:16:13;5.10;;;3.00;;
40170;SDS011;37650;52.790;18.268;2023-04-03T08:19:39;7.20;;;3.50;;
40170;SDS011;37650;52.790;18.268;2023-04-03T08:23:01;8.90;;;5.90;;
40170;SDS011;37650;52.790;18.268;2023-04-03T08:26:23;7.00;;;3.20;;
40170;SDS011;37650;52.790;18.268;2023-04-03T08:29:44;5.90;;;2.60;;
40170;SDS011;37650;52.790;18.268;2023-04-03T08:33:06;5.90;;;3.10;;
40170;SDS011;37650;52.790;18.268;2023-04-03T08:36:28;9.30;;;6.00;;
40170;SDS011;37650;52.790;18.268;2023-04-03T08:39:50;5.10;;;2.40;;
40170;SDS011;37650;52.790;18.268;2023-04-03T08:50:30;5.40;;;1.80;;
40170;SDS011;37650;52.790;18.268;2023-04-03T08:53:58;5.40;;;2.60;;
40170;SDS011;37650;52.790;18.268;2023-04-03T08:57:33;5.10;;;2.60;;
40170;SDS011;37650;52.790;18.268;2023-04-03T09:01:00;6.20;;;2.00;;
40170;SDS011;37650;52.790;18.268;2023-04-03T09:04:26;5.20;;;1.90;;
40170;SDS011;37650;52.790;18.268;2023-04-03T09:07:59;5.30;;;2.40;;
40170;SDS011;37650;52.790;18.268;2023-04-03T09:15:22;4.40;;;1.80;;
40170;SDS011;37650;52.790;18.268;2023-04-03T09:18:45;2.90;;;1.50;;
40170;SDS011;37650;52.790;18.268;2023-04-03T09:25:49;5.90;;;2.10;;
40170;SDS011;37650;52.790;18.268;2023-04-03T09:29:16;4.70;;;2.40;;
40170;SDS011;37650;52.790;18.268;2023-04-03T09:32:41;4.40;;;2.00;;
40170;SDS011;37650;52.790;18.268;2023-04-03T09:36:06;6.10;;;3.10;;
40170;SDS011;37650;52.790;18.268;2023-04-03T09:39:28;5.40;;;2.50;;
40170;SDS011;37650;52.790;18.268;2023-04-03T09:46:28;7.50;;;2.70;;
40170;SDS011;37650;52.790;18.268;2023-04-03T09:53:39;7.30;;;2.60;;
40170;SDS011;37650;52.790;18.268;2023-04-03T09:57:09;8.70;;;4.50;;
40170;SDS011;37650;52.790;18.268;2023-04-03T10:00:35;12.30;;;5.00;;
40170;SDS011;37650;52.790;18.268;2023-04-03T10:04:36;9.40;;;4.70;;
40170;SDS011;37650;52.790;18.268;2023-04-03T10:07:46;6.10;;;2.70;;
40170;SDS011;37650;52.790;18.268;2023-04-03T10:11:12;6.60;;;2.00;;
40170;SDS011;37650;52.790;18.268;2023-04-03T10:14:36;5.50;;;2.80;;
40170;SDS011;37650;52.790;18.268;2023-04-03T10:18:03;5.80;;;2.60;;
40170;SDS011;37650;52.790;18.268;2023-04-03T10:40:23;6.70;;;3.60;;
40170;SDS011;37650;52.790;18.268;2023-04-03T10:47:40;6.10;;;2.40;;
40170;SDS011;37650;52.790;18.268;2023-04-03T10:58:38;6.90;;;3.80;;
40170;SDS011;37650;52.790;18.268;2023-04-03T20:34:08;11.90;;;6.10;;
40170;SDS011;37650;52.790;18.268;2023-04-03T20:37:30;17.10;;;7.00;;
40170;SDS011;37650;52.790;18.268;2023-04-03T20:40:52;15.50;;;6.90;;
40170;SDS011;37650;52.790;18.268;2023-04-03T20:44:13;15.70;;;6.60;;
40170;SDS011;37650;52.790;18.268;2023-04-03T20:47:35;13.90;;;5.90;;
40170;SDS011;37650;52.790;18.268;2023-04-03T20:50:57;15.30;;;7.10;;
40170;SDS011;37650;52.790;18.268;2023-04-03T20:54:18;13.50;;;7.10;;
40170;SDS011;37650;52.790;18.268;2023-04-03T20:57:40;13.10;;;6.90;;
40170;SDS011;37650;52.790;18.268;2023-04-03T21:01:11;9.60;;;4.70;;
40170;SDS011;37650;52.790;18.268;2023-04-03T21:19:18;11.70;;;4.90;;
40170;SDS011;37650;52.790;18.268;2023-04-03T21:22:39;9.00;;;4.20;;
40170;SDS011;37650;52.790;18.268;2023-04-03T21:26:03;10.30;;;4.30;;
40170;SDS011;37650;52.790;18.268;2023-04-03T21:29:24;6.60;;;3.00;;
40170;SDS011;37650;52.790;18.268;2023-04-03T21:32:46;7.60;;;3.20;;
40170;SDS011;37650;52.790;18.268;2023-04-03T21:36:07;10.30;;;4.50;;
40170;SDS011;37650;52.790;18.268;2023-04-03T21:39:29;5.70;;;2.90;;
40170;SDS011;37650;52.790;18.268;2023-04-03T21:42:54;8.90;;;4.00;;
40170;SDS011;37650;52.790;18.268;2023-04-03T21:46:15;8.90;;;4.30;;
40170;SDS011;37650;52.790;18.268;2023-04-03T21:49:36;8.90;;;3.70;;
40170;SDS011;37650;52.790;18.268;2023-04-03T21:52:58;6.40;;;3.00;;
40170;SDS011;37650;52.790;18.268;2023-04-03T21:56:19;9.60;;;4.20;;
40170;SDS011;37650;52.790;18.268;2023-04-03T21:59:43;10.40;;;4.10;;
40170;SDS011;37650;52.790;18.268;2023-04-03T22:03:06;8.00;;;3.90;;
40170;SDS011;37650;52.790;18.268;2023-04-03T22:06:27;7.80;;;3.90;;
40170;SDS011;37650;52.790;18.268;2023-04-03T22:09:49;7.30;;;3.70;;
40170;SDS011;37650;52.790;18.268;2023-04-03T22:13:10;8.70;;;4.00;;
40170;SDS011;37650;52.790;18.268;2023-04-03T22:16:31;8.90;;;4.10;;
40170;SDS011;37650;52.790;18.268;2023-04-03T22:19:53;9.30;;;4.00;;
40170;SDS011;37650;52.790;18.268;2023-04-03T22:23:14;9.30;;;4.20;;
40170;SDS011;37650;52.790;18.268;2023-04-03T22:26:35;9.00;;;4.00;;
40170;SDS011;37650;52.790;18.268;2023-04-03T22:29:57;5.30;;;3.10;;
40170;SDS011;37650;52.790;18.268;2023-04-03T22:33:19;10.90;;;4.10;;
40170;SDS011;37650;52.790;18.268;2023-04-03T22:36:40;8.40;;;3.80;;
40170;SDS011;37650;52.790;18.268;2023-04-03T22:40:02;6.90;;;3.50;;
40170;SDS011;37650;52.790;18.268;2023-04-03T22:43:24;9.80;;;3.90;;
40170;SDS011;37650;52.790;18.268;2023-04-03T22:46:46;8.00;;;3.40;;
40170;SDS011;37650;52.790;18.268;2023-04-03T22:50:08;8.50;;;4.10;;
40170;SDS011;37650;52.790;18.268;2023-04-03T22:53:30;10.10;;;4.30;;
40170;SDS011;37650;52.790;18.268;2023-04-03T22:56:52;9.20;;;3.90;;
40170;SDS011;37650;52.790;18.268;2023-04-03T23:00:13;7.50;;;3.60;;
40170;SDS011;37650;52.790;18.268;2023-04-03T23:03:36;7.60;;;3.60;;
40170;SDS011;37650;52.790;18.268;2023-04-03T23:06:59;6.10;;;2.90;;
40170;SDS011;37650;52.790;18.268;2023-04-03T23:10:20;6.10;;;2.80;;
40170;SDS011;37650;52.790;18.268;2023-04-03T23:13:41;6.50;;;3.40;;
40170;SDS011;37650;52.790;18.268;2023-04-03T23:17:03;6.40;;;3.00;;
40170;SDS011;37650;52.790;18.268;2023-04-03T23:20:25;6.80;;;3.20;;
40170;SDS011;37650;52.790;18.268;2023-04-03T23:23:46;6.60;;;3.00;;
40170;SDS011;37650;52.790;18.268;2023-04-03T23:27:08;8.20;;;3.60;;
40170;SDS011;37650;52.790;18.268;2023-04-03T23:30:29;8.10;;;3.70;;
40170;SDS011;37650;52.790;18.268;2023-04-03T23:33:50;8.70;;;3.00;;
40170;SDS011;37650;52.790;18.268;2023-04-03T23:37:11;7.40;;;3.40;;
40170;SDS011;37650;52.790;18.268;2023-04-03T23:40:33;6.90;;;3.10;;
40170;SDS011;37650;52.790;18.268;2023-04-03T23:43:54;7.50;;;3.30;;
40170;SDS011;37650;52.790;18.268;2023-04-03T23:47:15;7.30;;;3.30;;
40170;SDS011;37650;52.790;18.268;2023-04-03T23:50:37;8.80;;;3.30;;
40170;SDS011;37650;52.790;18.268;2023-04-03T23:53:58;8.80;;;3.40;;
40170;SDS011;37650;52.790;18.268;2023-04-03T23:57:19;10.00;;;3.90;;
